createdAt,value
2022-10-23T00:00:18.412Z,59.42
2022-10-23T00:03:08.620Z,59.66
2022-10-23T00:05:40.560Z,59.48
2022-10-23T00:08:08.155Z,60.04
2022-10-23T00:10:43.322Z,60.01
2022-10-23T00:13:12.485Z,59.57
2022-10-23T00:15:39.475Z,59.86
2022-10-23T00:18:06.475Z,59.80
2022-10-23T00:20:40.550Z,60.75
2022-10-23T00:23:07.546Z,60.62
2022-10-23T00:25:34.579Z,60.56
2022-10-23T00:28:01.866Z,60.69
2022-10-23T00:30:31.064Z,60.85
2022-10-23T00:33:00.471Z,60.62
2022-10-23T00:35:27.674Z,61.05
2022-10-23T00:37:54.589Z,60.67
2022-10-23T00:40:24.642Z,60.99
2022-10-23T00:42:51.940Z,60.27
2022-10-23T00:45:31.244Z,61.11
2022-10-23T00:48:01.916Z,60.23
2022-10-23T00:50:38.710Z,60.83
2022-10-23T00:53:09.147Z,60.60
2022-10-23T00:55:46.015Z,60.41
2022-10-23T00:58:16.898Z,60.06
2022-10-23T01:00:55.418Z,60.52
2022-10-23T01:03:29.331Z,60.48
2022-10-23T01:06:06.564Z,59.85
2022-10-23T01:08:48.071Z,60.76
2022-10-23T01:11:24.670Z,61.74
2022-10-23T01:14:06.513Z,61.95
2022-10-23T01:16:38.727Z,62.02
2022-10-23T01:19:19.601Z,62.46
2022-10-23T01:22:00.511Z,62.10
2022-10-23T01:24:33.250Z,62.28
2022-10-23T01:27:17.305Z,62.51
2022-10-23T01:29:51.520Z,63.01
2022-10-23T01:32:44.743Z,62.46
2022-10-23T01:35:19.155Z,62.84
2022-10-23T01:38:15.204Z,63.21
2022-10-23T01:40:50.143Z,62.95
2022-10-23T01:43:25.608Z,63.60
2022-10-23T01:46:07.324Z,64.25
2022-10-23T01:48:38.370Z,64.57
2022-10-23T01:51:17.574Z,65.06
2022-10-23T01:53:48.096Z,65.07
2022-10-23T01:56:20.365Z,65.63
2022-10-23T01:59:02.301Z,66.12
2022-10-23T02:01:36.487Z,65.33
2022-10-23T02:04:16.213Z,65.79
2022-10-23T02:06:43.401Z,65.75
2022-10-23T02:09:17.172Z,66.19
2022-10-23T02:12:07.567Z,66.28
2022-10-23T02:14:46.093Z,66.57
2022-10-23T02:17:33.634Z,66.80
2022-10-23T02:20:18.541Z,66.79
2022-10-23T02:23:11.241Z,66.76
2022-10-23T02:25:47.848Z,67.09
2022-10-23T02:28:22.360Z,66.78
2022-10-23T02:30:59.131Z,67.29
2022-10-23T02:33:28.883Z,67.81
2022-10-23T02:35:58.558Z,67.81
2022-10-23T02:38:42.053Z,67.62
2022-10-23T02:41:15.241Z,67.97
2022-10-23T02:44:13.225Z,68.02
2022-10-23T02:47:04.872Z,68.64
2022-10-23T02:49:52.217Z,68.39
2022-10-23T02:52:35.578Z,68.45
2022-10-23T02:55:22.356Z,68.54
2022-10-23T02:57:57.386Z,68.83
2022-10-23T03:00:25.128Z,69.19
2022-10-23T03:03:30.072Z,69.33
2022-10-23T03:05:57.206Z,68.69
2022-10-23T03:08:26.829Z,69.55
2022-10-23T03:10:53.861Z,69.35
2022-10-23T03:13:23.550Z,69.19
2022-10-23T03:15:53.414Z,69.14
2022-10-23T03:18:25.868Z,68.88
2022-10-23T03:20:52.796Z,68.68
2022-10-23T03:23:22.646Z,69.09
2022-10-23T03:25:49.688Z,69.14
2022-10-23T03:28:30.610Z,69.49
2022-10-23T03:31:02.265Z,69.41
2022-10-23T03:33:32.676Z,69.92
2022-10-23T03:36:10.298Z,69.60
2022-10-23T03:38:37.323Z,69.90
2022-10-23T03:41:05.651Z,69.54
2022-10-23T03:43:35.162Z,69.84
2022-10-23T03:46:09.351Z,69.86
2022-10-23T03:48:39.690Z,70.38
2022-10-23T03:51:06.962Z,70.15
2022-10-23T03:53:34.608Z,69.33
2022-10-23T03:56:06.876Z,69.97
2022-10-23T03:58:34.384Z,69.84
2022-10-23T04:01:01.695Z,70.24
2022-10-23T04:03:29.123Z,70.54
2022-10-23T04:05:59.202Z,70.35
2022-10-23T04:08:28.610Z,70.58
2022-10-23T04:10:58.418Z,70.43
2022-10-23T04:13:44.212Z,69.68
2022-10-23T04:16:13.993Z,70.08
2022-10-23T04:18:41.943Z,70.17
2022-10-23T04:21:26.805Z,70.51
2022-10-23T04:23:55.454Z,70.49
2022-10-23T04:26:22.925Z,70.45
2022-10-23T04:28:58.910Z,70.57
2022-10-23T04:31:28.759Z,70.66
2022-10-23T04:33:55.843Z,70.56
2022-10-23T04:36:30.456Z,70.32
2022-10-23T04:39:04.629Z,70.37
2022-10-23T04:41:38.962Z,70.26
2022-10-23T04:44:06.720Z,69.59
2022-10-23T04:46:45.125Z,69.84
2022-10-23T04:49:12.472Z,69.55
2022-10-23T04:51:54.670Z,69.83
2022-10-23T04:54:37.842Z,69.85
2022-10-23T04:57:23.075Z,69.80
2022-10-23T05:00:00.603Z,69.21
2022-10-23T05:02:30.274Z,69.70
2022-10-23T05:04:57.392Z,69.90
2022-10-23T05:07:37.889Z,69.13
2022-10-23T05:10:22.023Z,68.45
2022-10-23T05:13:03.008Z,68.61
2022-10-23T05:15:30.718Z,68.48
2022-10-23T05:18:05.280Z,68.08
2022-10-23T05:20:36.407Z,67.86
2022-10-23T05:23:11.160Z,67.57
2022-10-23T05:25:39.077Z,67.93
2022-10-23T05:28:17.844Z,67.51
2022-10-23T05:30:57.672Z,66.83
2022-10-23T05:33:29.080Z,66.48
2022-10-23T05:36:00.035Z,65.94
2022-10-23T05:38:32.420Z,65.38
2022-10-23T05:41:04.881Z,66.01
2022-10-23T05:43:37.696Z,65.73
2022-10-23T05:46:42.437Z,65.13
2022-10-23T05:49:44.958Z,64.52
2022-10-23T05:52:32.141Z,65.60
2022-10-23T05:55:05.337Z,65.38
2022-10-23T05:57:52.122Z,65.27
2022-10-23T06:00:29.619Z,64.76
2022-10-23T06:03:16.643Z,64.98
2022-10-23T06:05:53.418Z,65.60
2022-10-23T06:08:24.422Z,65.28
2022-10-23T06:10:51.992Z,65.59
2022-10-23T06:13:26.179Z,64.65
2022-10-23T06:15:53.659Z,64.77
2022-10-23T06:18:32.399Z,64.36
2022-10-23T06:21:07.559Z,63.98
2022-10-23T06:23:39.580Z,63.75
2022-10-23T06:26:35.498Z,64.18
2022-10-23T06:29:11.594Z,64.34
2022-10-23T06:31:49.490Z,64.41
2022-10-23T06:34:20.014Z,64.23
2022-10-23T06:36:49.725Z,63.88
2022-10-23T06:39:48.199Z,62.79
2022-10-23T06:42:19.414Z,63.18
2022-10-23T06:44:52.264Z,63.03
2022-10-23T06:47:42.015Z,62.71
2022-10-23T06:50:31.242Z,63.36
2022-10-23T06:53:06.593Z,63.36
2022-10-23T06:58:29.614Z,62.51
2022-10-23T07:01:13.667Z,63.01
2022-10-23T07:03:45.664Z,63.04
2022-10-23T07:06:20.514Z,63.31
2022-10-23T07:08:47.882Z,63.22
2022-10-23T07:11:35.901Z,63.27
2022-10-23T07:14:02.926Z,63.08
2022-10-23T07:16:37.239Z,63.36
2022-10-23T07:19:07.825Z,63.73
2022-10-23T07:21:56.067Z,64.12
2022-10-23T07:24:38.823Z,63.86
2022-10-23T07:27:22.590Z,63.90
2022-10-23T07:29:55.812Z,63.70
2022-10-23T07:32:30.512Z,64.00
2022-10-23T07:35:36.999Z,64.10
2022-10-23T07:38:22.695Z,64.37
2022-10-23T07:41:01.966Z,64.54
2022-10-23T07:43:54.042Z,63.95
2022-10-23T07:46:21.143Z,63.60
2022-10-23T07:48:48.706Z,64.00
2022-10-23T07:51:21.251Z,63.97
2022-10-23T07:53:54.912Z,63.79
2022-10-23T07:56:50.560Z,63.89
2022-10-23T07:59:26.366Z,63.23
2022-10-23T08:01:59.907Z,63.15
2022-10-23T08:04:44.786Z,62.91
2022-10-23T08:07:34.515Z,62.72
2022-10-23T08:10:01.651Z,62.76
2022-10-23T08:12:38.936Z,63.18
2022-10-23T08:15:09.041Z,63.40
2022-10-23T08:17:48.869Z,64.04
2022-10-23T08:20:44.440Z,64.38
2022-10-23T08:23:12.697Z,64.69
2022-10-23T08:25:41.068Z,64.70
2022-10-23T08:28:09.849Z,64.70
2022-10-23T08:30:46.717Z,65.42
2022-10-23T08:33:22.178Z,65.17
2022-10-23T08:35:49.687Z,64.78
2022-10-23T08:38:30.367Z,64.45
2022-10-23T08:41:01.632Z,64.08
2022-10-23T08:43:50.598Z,63.97
2022-10-23T08:46:38.705Z,64.82
2022-10-23T08:49:22.774Z,65.25
2022-10-23T08:52:08.068Z,65.07
2022-10-23T08:55:00.631Z,64.58
2022-10-23T08:57:45.600Z,64.24
2022-10-23T09:00:18.282Z,64.32
2022-10-23T09:02:53.586Z,63.89
2022-10-23T09:06:18.906Z,63.39
2022-10-23T09:09:15.361Z,63.78
2022-10-23T09:11:52.424Z,63.74
2022-10-23T09:14:49.043Z,64.04
2022-10-23T09:17:31.281Z,64.12
2022-10-23T09:20:22.751Z,63.92
2022-10-23T09:22:57.476Z,64.06
2022-10-23T09:25:32.736Z,64.13
2022-10-23T09:28:05.215Z,63.89
2022-10-23T09:30:42.064Z,64.60
2022-10-23T09:33:18.234Z,65.17
2022-10-23T09:36:12.589Z,65.28
2022-10-23T09:38:45.733Z,65.74
2022-10-23T09:41:38.092Z,65.52
2022-10-23T09:44:07.877Z,65.86
2022-10-23T09:47:12.308Z,65.00
2022-10-23T09:49:46.905Z,65.53
2022-10-23T09:52:14.062Z,65.69
2022-10-23T09:54:44.213Z,65.86
2022-10-23T09:57:23.207Z,65.75
2022-10-23T10:00:16.687Z,66.40
2022-10-23T10:02:55.434Z,65.98
2022-10-23T10:05:44.043Z,65.83
2022-10-23T10:08:39.437Z,65.68
2022-10-23T10:11:09.375Z,66.12
2022-10-23T10:14:09.759Z,65.73
2022-10-23T10:17:08.633Z,66.71
2022-10-23T10:20:25.777Z,67.42
2022-10-23T10:23:29.417Z,67.40
2022-10-23T10:27:21.307Z,68.04
2022-10-23T10:29:54.172Z,67.71
2022-10-23T10:32:33.719Z,68.00
2022-10-23T10:35:12.830Z,67.86
2022-10-23T10:37:57.474Z,68.42
2022-10-23T10:40:33.325Z,68.67
2022-10-23T10:43:24.756Z,68.69
2022-10-23T10:46:05.440Z,69.10
2022-10-23T10:48:41.312Z,69.22
2022-10-23T10:51:57.599Z,68.70
2022-10-23T10:54:57.745Z,68.68
2022-10-23T10:57:49.645Z,68.04
2022-10-23T11:00:24.578Z,67.77
2022-10-23T11:02:57.492Z,67.17
2022-10-23T11:05:46.783Z,67.63
2022-10-23T11:08:24.560Z,66.86
2022-10-23T11:11:00.492Z,67.05
2022-10-23T11:13:40.918Z,66.97
2022-10-23T11:16:26.902Z,67.51
2022-10-23T11:19:22.015Z,67.54
2022-10-23T11:21:51.916Z,67.52
2022-10-23T11:25:04.141Z,67.25
2022-10-23T11:28:10.766Z,67.66
2022-10-23T11:31:21.482Z,67.58
2022-10-23T11:34:14.639Z,67.41
2022-10-23T11:36:50.467Z,68.06
2022-10-23T11:42:11.386Z,67.77
2022-10-23T11:44:51.906Z,68.70
2022-10-23T11:47:40.845Z,68.48
2022-10-23T11:50:07.834Z,69.04
2022-10-23T11:53:13.560Z,69.83
2022-10-23T11:56:16.832Z,69.06
2022-10-23T11:58:49.612Z,68.35
2022-10-23T12:01:19.647Z,69.25
2022-10-23T12:03:55.994Z,69.07
2022-10-23T12:06:32.104Z,69.20
2022-10-23T12:09:06.880Z,69.02
2022-10-23T12:12:20.909Z,69.39
2022-10-23T12:14:50.435Z,70.30
2022-10-23T12:17:23.414Z,70.54
2022-10-23T12:20:04.201Z,71.01
2022-10-23T12:23:00.339Z,71.12
2022-10-23T12:25:35.725Z,70.64
2022-10-23T12:28:26.567Z,70.35
2022-10-23T12:31:17.746Z,70.30
2022-10-23T12:34:04.728Z,70.85
2022-10-23T12:37:09.534Z,71.48
2022-10-23T12:39:40.475Z,72.36
2022-10-23T12:42:17.555Z,71.73
2022-10-23T12:44:45.742Z,71.42
2022-10-23T12:47:21.578Z,71.21
2022-10-23T12:49:53.380Z,71.49
2022-10-23T12:52:21.483Z,71.19
2022-10-23T12:54:58.686Z,71.22
2022-10-23T12:57:32.114Z,71.34
2022-10-23T13:00:06.301Z,71.14
2022-10-23T13:02:35.831Z,71.46
2022-10-23T13:05:07.757Z,71.47
2022-10-23T13:07:47.249Z,71.08
2022-10-23T13:10:22.072Z,70.65
2022-10-23T13:13:01.957Z,70.50
2022-10-23T13:15:41.142Z,69.62
2022-10-23T13:18:11.064Z,69.42
2022-10-23T13:20:47.924Z,69.77
2022-10-23T13:23:34.692Z,70.10
2022-10-23T13:26:04.186Z,70.55
2022-10-23T13:28:45.731Z,70.99
2022-10-23T13:31:15.679Z,70.85
2022-10-23T13:33:51.036Z,71.00
2022-10-23T13:36:18.629Z,70.68
2022-10-23T13:39:04.524Z,70.30
2022-10-23T13:41:46.701Z,70.41
2022-10-23T13:44:25.665Z,70.11
2022-10-23T13:46:55.823Z,70.81
2022-10-23T13:49:30.045Z,70.91
2022-10-23T13:52:05.956Z,70.57
2022-10-23T13:54:33.167Z,70.49
2022-10-23T13:57:03.377Z,71.20
2022-10-23T13:59:33.515Z,71.01
2022-10-23T14:02:05.067Z,70.63
2022-10-23T14:04:34.380Z,71.26
2022-10-23T14:07:09.105Z,71.22
2022-10-23T14:09:36.123Z,71.02
2022-10-23T14:12:18.245Z,71.53
2022-10-23T14:14:51.152Z,71.52
2022-10-23T14:17:19.256Z,71.92
2022-10-23T14:19:46.668Z,71.81
2022-10-23T14:22:18.318Z,71.37
2022-10-23T14:24:47.601Z,70.86
2022-10-23T14:27:14.680Z,71.59
2022-10-23T14:29:43.920Z,72.06
2022-10-23T14:32:14.234Z,71.79
2022-10-23T14:34:44.036Z,72.07
2022-10-23T14:37:14.326Z,72.25
2022-10-23T14:39:48.911Z,72.07
2022-10-23T14:42:35.656Z,72.33
2022-10-23T14:45:05.701Z,72.21
2022-10-23T14:47:40.549Z,71.95
2022-10-23T14:50:11.618Z,72.12
2022-10-23T14:52:41.542Z,71.75
2022-10-23T14:55:09.146Z,72.33
2022-10-23T14:57:36.175Z,71.57
2022-10-23T15:00:04.281Z,71.69
2022-10-23T15:02:38.817Z,71.92
2022-10-23T15:05:06.355Z,71.62
2022-10-23T15:07:42.427Z,71.76
2022-10-23T15:10:10.788Z,71.76
2022-10-23T15:12:39.398Z,71.53
2022-10-23T15:15:07.586Z,71.28
2022-10-23T15:17:35.920Z,70.88
2022-10-23T15:20:03.722Z,71.53
2022-10-23T15:22:31.064Z,71.47
2022-10-23T15:24:57.961Z,71.22
2022-10-23T15:27:24.912Z,71.52
2022-10-23T15:29:53.993Z,71.58
2022-10-23T15:32:27.963Z,70.92
2022-10-23T15:35:05.469Z,70.97
2022-10-23T15:37:32.431Z,70.69
2022-10-23T15:40:01.432Z,70.87
2022-10-23T15:42:39.501Z,70.43
2022-10-23T15:45:10.197Z,70.92
2022-10-23T15:47:52.933Z,70.89
2022-10-23T15:50:22.624Z,71.43
2022-10-23T15:52:51.970Z,71.12
2022-10-23T15:55:33.682Z,70.95
2022-10-23T15:58:05.678Z,71.34
2022-10-23T16:00:38.530Z,71.42
2022-10-23T16:03:07.923Z,71.26
2022-10-23T16:05:36.993Z,70.84
2022-10-23T16:08:06.370Z,71.78
2022-10-23T16:10:33.583Z,71.26
2022-10-23T16:13:00.715Z,71.43
2022-10-23T16:15:29.858Z,71.59
2022-10-23T16:18:06.750Z,71.88
2022-10-23T16:20:33.785Z,70.55
2022-10-23T16:23:06.768Z,70.61
2022-10-23T16:25:40.178Z,70.47
2022-10-23T16:28:09.736Z,70.65
2022-10-23T16:30:43.631Z,70.62
2022-10-23T16:33:13.690Z,71.21
2022-10-23T16:35:42.839Z,70.19
2022-10-23T16:38:16.638Z,70.59
2022-10-23T16:40:53.303Z,69.93
2022-10-23T16:43:52.989Z,70.56
2022-10-23T16:46:42.576Z,70.53
2022-10-23T16:49:09.789Z,70.51
2022-10-23T16:51:39.971Z,71.02
2022-10-23T16:54:18.182Z,70.31
2022-10-23T16:56:54.430Z,70.75
2022-10-23T16:59:23.145Z,70.75
2022-10-23T17:01:53.573Z,71.08
2022-10-23T17:04:20.931Z,70.48
2022-10-23T17:06:47.955Z,70.21
2022-10-23T17:09:15.159Z,70.81
2022-10-23T17:11:45.239Z,69.61
2022-10-23T17:14:21.211Z,70.85
2022-10-23T17:16:53.336Z,70.57
2022-10-23T17:19:44.519Z,70.32
2022-10-23T17:22:20.572Z,69.61
2022-10-23T17:24:50.241Z,70.29
2022-10-23T17:27:22.332Z,69.92
2022-10-23T17:29:49.318Z,70.57
2022-10-23T17:32:17.037Z,69.17
2022-10-23T17:34:48.094Z,69.51
2022-10-23T17:37:20.342Z,70.15
2022-10-23T17:39:56.350Z,70.17
2022-10-23T17:42:43.379Z,69.84
2022-10-23T17:45:11.000Z,70.28
2022-10-23T17:47:40.447Z,70.20
2022-10-23T17:50:13.223Z,70.00
2022-10-23T17:52:40.857Z,70.61
2022-10-23T17:55:11.181Z,69.71
2022-10-23T17:57:38.559Z,70.33
2022-10-23T18:00:08.237Z,69.75
2022-10-23T18:02:42.243Z,68.77
2022-10-23T18:05:09.642Z,69.61
2022-10-23T18:07:36.636Z,69.49
2022-10-23T18:10:08.250Z,69.88
2022-10-23T18:12:38.752Z,69.51
2022-10-23T18:15:14.241Z,69.51
2022-10-23T18:17:44.289Z,70.79
2022-10-23T18:20:30.007Z,70.51
2022-10-23T18:23:03.436Z,69.62
2022-10-23T18:25:56.769Z,69.92
2022-10-23T18:29:09.572Z,69.56
2022-10-23T18:32:27.969Z,70.35
2022-10-23T18:34:57.614Z,70.32
2022-10-23T18:37:31.756Z,70.36
2022-10-23T18:40:00.333Z,70.03
2022-10-23T18:42:30.195Z,69.94
2022-10-23T18:44:58.409Z,70.13
2022-10-23T18:47:26.367Z,70.53
2022-10-23T18:49:53.440Z,70.35
2022-10-23T18:52:24.002Z,70.12
2022-10-23T18:55:05.119Z,70.46
2022-10-23T18:57:33.782Z,69.31
2022-10-23T19:00:10.430Z,69.85
2022-10-23T19:02:38.827Z,69.61
2022-10-23T19:05:07.766Z,69.69
2022-10-23T19:07:35.679Z,69.06
2022-10-23T19:10:06.831Z,69.46
2022-10-23T19:12:33.896Z,69.34
2022-10-23T19:15:06.157Z,69.04
2022-10-23T19:17:33.334Z,69.26
2022-10-23T19:20:11.321Z,69.03
2022-10-23T19:22:45.136Z,69.46
2022-10-23T19:25:19.524Z,69.45
2022-10-23T19:27:57.154Z,69.01
2022-10-23T19:30:25.055Z,69.21
2022-10-23T19:32:52.620Z,69.60
2022-10-23T19:35:21.069Z,69.50
2022-10-23T19:37:50.567Z,70.04
2022-10-23T19:40:20.120Z,69.25
2022-10-23T19:42:48.255Z,69.16
2022-10-23T19:45:17.862Z,69.62
2022-10-23T19:47:48.523Z,69.20
2022-10-23T19:50:24.374Z,69.37
2022-10-23T19:52:51.479Z,69.85
2022-10-23T19:55:18.398Z,69.08
2022-10-23T19:57:45.676Z,68.83
2022-10-23T20:00:21.180Z,68.65
2022-10-23T20:02:50.202Z,68.78
2022-10-23T20:05:21.971Z,69.50
2022-10-23T20:07:51.562Z,68.87
2022-10-23T20:10:18.947Z,69.08
2022-10-23T20:12:57.095Z,68.98
2022-10-23T20:15:42.729Z,68.49
2022-10-23T20:18:10.029Z,68.62
2022-10-23T20:20:44.541Z,68.87
2022-10-23T20:23:17.329Z,68.48
2022-10-23T20:31:23.674Z,69.20
2022-10-23T20:33:55.050Z,68.50
2022-10-23T20:36:32.843Z,68.62
2022-10-23T20:39:05.720Z,68.78
2022-10-23T20:41:33.893Z,68.01
2022-10-23T20:44:01.375Z,68.40
2022-10-23T20:49:14.007Z,69.12
2022-10-23T20:51:44.012Z,68.46
2022-10-23T20:54:13.631Z,67.87
2022-10-23T20:59:28.259Z,67.79
2022-10-23T21:01:56.687Z,68.20
2022-10-23T21:04:30.393Z,67.60
2022-10-23T21:07:09.920Z,67.92
2022-10-23T21:09:40.185Z,68.11
2022-10-23T21:12:12.878Z,67.34
2022-10-23T21:14:39.895Z,67.29
2022-10-23T21:17:08.663Z,67.28
2022-10-23T21:19:35.931Z,66.81
2022-10-23T21:24:58.992Z,66.91
2022-10-23T21:30:24.972Z,66.97
2022-10-23T21:32:51.852Z,66.55
2022-10-23T21:35:18.852Z,67.26
2022-10-23T21:37:48.224Z,66.48
2022-10-23T21:40:15.318Z,67.62
2022-10-23T21:45:40.375Z,67.00
2022-10-23T21:48:14.759Z,67.11
2022-10-23T21:53:38.812Z,66.58
2022-10-23T21:56:05.800Z,66.80
2022-10-23T21:58:35.008Z,67.00
2022-10-23T22:01:02.180Z,66.32
2022-10-23T22:03:36.468Z,66.39
2022-10-23T22:06:03.585Z,66.71
2022-10-23T22:08:31.923Z,66.85
2022-10-23T22:13:46.494Z,66.44
2022-10-23T22:19:02.303Z,66.25
2022-10-23T22:24:17.783Z,66.21
2022-10-23T22:26:50.670Z,66.87
2022-10-23T22:29:27.960Z,66.53
2022-10-23T22:31:57.188Z,66.58
2022-10-23T22:42:43.400Z,66.95
2022-10-23T22:45:12.859Z,66.77
2022-10-23T22:50:24.288Z,66.28
2022-10-23T22:52:52.284Z,66.03
2022-10-23T22:55:19.264Z,66.72
2022-10-23T23:00:48.505Z,66.40
2022-10-23T23:03:18.373Z,66.32
2022-10-23T23:05:47.780Z,67.17
2022-10-23T23:08:19.850Z,66.33
2022-10-23T23:10:54.050Z,66.81
2022-10-23T23:13:21.172Z,66.50
2022-10-23T23:15:50.321Z,66.48
2022-10-23T23:18:17.423Z,66.46
2022-10-23T23:20:51.827Z,66.30
2022-10-23T23:23:19.216Z,65.71
2022-10-23T23:25:59.572Z,65.56
2022-10-23T23:28:26.735Z,66.40
2022-10-23T23:31:06.955Z,66.49
2022-10-23T23:33:34.846Z,66.10
2022-10-23T23:38:53.744Z,66.10
2022-10-23T23:41:22.006Z,65.79
2022-10-23T23:43:49.538Z,65.59
2022-10-23T23:51:53.017Z,64.77
2022-10-23T23:54:23.108Z,64.63
2022-10-23T23:56:50.203Z,64.83
